Time;durP1;ratioP1;P1;durP2;ratioP2;P2;SDS_P1;SDS_P2;PMS_P1;PMS_P2;Temp;Humidity;BMP_temperature;BMP_pressure;BME280_temperature;BME280_humidity;BME280_pressure;Samples;Min_cycle;Max_cycle;Signal;HPM_P1;HPM_P2
2022/08/26 00:01:35;;;;;;;16.20;13.43;;;23.40;99.90;;;;;;5113429;27;20137;-80
2022/08/26 00:04:01;;;;;;;18.27;15.05;;;23.40;99.90;;;;;;5112869;27;20152;-80
2022/08/26 00:06:27;;;;;;;20.80;14.60;;;23.40;99.90;;;;;;5133026;27;20047;-80
2022/08/26 00:08:53;;;;;;;16.73;14.02;;;23.40;99.90;;;;;;5107138;28;20529;-80
2022/08/26 00:11:19;;;;;;;16.13;13.55;;;23.30;99.90;;;;;;5104674;27;20058;-80
2022/08/26 00:13:44;;;;;;;16.23;13.10;;;23.30;99.90;;;;;;5125223;27;20031;-80
2022/08/26 00:16:10;;;;;;;16.42;13.32;;;23.30;99.90;;;;;;5113463;27;20571;-80
2022/08/26 00:18:37;;;;;;;17.30;13.80;;;23.30;99.90;;;;;;5110043;27;20055;-79
2022/08/26 00:21:04;;;;;;;18.40;13.50;;;23.30;99.90;;;;;;5131679;27;20059;-80
2022/08/26 00:23:30;;;;;;;17.27;13.80;;;23.20;99.90;;;;;;5125488;27;20606;-80
2022/08/26 00:25:56;;;;;;;20.25;13.63;;;23.00;99.90;;;;;;5111905;27;20039;-80
2022/08/26 00:28:22;;;;;;;17.45;13.57;;;23.00;99.90;;;;;;5129006;27;20038;-80
2022/08/26 00:30:48;;;;;;;17.70;14.03;;;23.00;99.90;;;;;;5109768;27;20043;-80
2022/08/26 00:33:15;;;;;;;16.90;13.70;;;22.90;99.90;;;;;;5110389;27;20047;-80
2022/08/26 00:35:41;;;;;;;16.85;14.02;;;22.90;99.90;;;;;;5125900;27;20039;-80
2022/08/26 00:38:07;;;;;;;18.73;14.73;;;22.80;99.90;;;;;;5111894;27;20055;-79
2022/08/26 00:40:48;;;;;;;15.70;14.10;;;22.70;99.90;;;;;;5106542;27;20043;-80
2022/08/26 00:43:14;;;;;;;20.58;14.32;;;22.60;99.90;;;;;;5112131;27;20485;-79
2022/08/26 00:45:49;;;;;;;17.52;14.27;;;22.60;99.90;;;;;;5128921;27;20434;-80
2022/08/26 00:48:19;;;;;;;19.92;14.43;;;22.70;99.90;;;;;;5108990;27;20043;-80
2022/08/26 00:51:00;;;;;;;18.70;15.45;;;22.70;99.90;;;;;;5125249;27;20375;-80
2022/08/26 00:53:28;;;;;;;17.35;15.55;;;22.60;99.90;;;;;;5101517;27;20043;-80
2022/08/26 00:56:06;;;;;;;17.38;15.52;;;22.50;99.90;;;;;;5107787;27;20430;-80
2022/08/26 00:58:34;;;;;;;19.65;16.00;;;22.50;99.90;;;;;;5111466;27;20039;-80
2022/08/26 01:01:00;;;;;;;22.20;16.10;;;22.50;99.90;;;;;;5130283;27;20047;-80
2022/08/26 01:03:29;;;;;;;17.83;15.45;;;22.40;99.90;;;;;;5129129;27;20138;-80
2022/08/26 01:05:58;;;;;;;19.73;16.25;;;22.40;99.90;;;;;;5110659;27;20093;-80
2022/08/26 01:08:24;;;;;;;23.98;16.58;;;22.40;99.90;;;;;;5109588;27;20047;-80
2022/08/26 01:10:51;;;;;;;17.73;15.40;;;22.30;99.90;;;;;;5113699;27;20035;-80
2022/08/26 01:13:17;;;;;;;19.33;16.73;;;22.30;99.90;;;;;;5105694;27;20050;-80
2022/08/26 01:15:46;;;;;;;17.73;15.82;;;22.30;99.90;;;;;;5115282;27;20401;-80
2022/08/26 01:18:13;;;;;;;19.80;15.27;;;22.20;99.90;;;;;;5101705;27;20368;-80
2022/08/26 01:21:01;;;;;;;18.92;15.43;;;22.20;99.90;;;;;;5118014;27;20050;-78
2022/08/26 01:23:32;;;;;;;23.92;16.52;;;22.20;99.90;;;;;;5142093;27;20047;-80
2022/08/26 01:26:13;;;;;;;21.92;18.13;;;22.10;99.90;;;;;;5121698;27;20051;-80
2022/08/26 01:28:40;;;;;;;22.00;19.67;;;22.10;99.90;;;;;;5117085;27;20048;-80
2022/08/26 01:31:10;;;;;;;22.80;19.97;;;22.00;99.90;;;;;;5105866;27;20127;-80
2022/08/26 01:33:56;;;;;;;26.70;23.88;;;22.00;99.90;;;;;;5106432;27;20043;-81
2022/08/26 01:36:22;;;;;;;31.38;27.98;;;22.00;99.90;;;;;;5108565;27;20050;-81
2022/08/26 01:38:48;;;;;;;30.80;28.10;;;21.90;99.90;;;;;;5124387;27;20035;-81
2022/08/26 01:41:14;;;;;;;31.10;28.13;;;21.90;99.90;;;;;;5129747;27;20825;-81
2022/08/26 01:43:44;;;;;;;34.20;30.88;;;21.80;99.90;;;;;;5121205;27;20035;-80
2022/08/26 01:46:11;;;;;;;36.92;33.47;;;21.90;99.90;;;;;;5123929;27;20912;-81
2022/08/26 01:48:40;;;;;;;37.65;33.85;;;21.80;99.90;;;;;;5128781;27;20039;-81
2022/08/26 01:51:09;;;;;;;37.00;33.42;;;21.80;99.90;;;;;;5100672;28;20047;-81
2022/08/26 01:53:35;;;;;;;38.17;34.55;;;21.80;99.90;;;;;;5125061;27;20038;-81
2022/08/26 01:56:02;;;;;;;40.77;36.87;;;21.70;99.90;;;;;;5110647;27;20053;-81
2022/08/26 01:58:37;;;;;;;40.15;36.10;;;21.70;99.90;;;;;;5127557;27;20393;-81
2022/08/26 02:01:04;;;;;;;40.05;36.42;;;21.60;99.90;;;;;;5127067;27;20071;-80
2022/08/26 02:03:30;;;;;;;40.50;36.67;;;21.60;99.90;;;;;;5109050;27;20068;-81
2022/08/26 02:06:03;;;;;;;44.27;40.17;;;21.60;99.90;;;;;;5108794;27;20133;-80
2022/08/26 02:08:51;;;;;;;46.50;41.78;;;21.60;99.90;;;;;;5126672;27;20063;-81
2022/08/26 02:11:17;;;;;;;48.88;44.13;;;21.50;99.90;;;;;;5128159;27;20151;-79
2022/08/26 02:13:47;;;;;;;47.42;42.53;;;21.50;99.90;;;;;;5108100;27;20384;-80
2022/08/26 02:16:16;;;;;;;48.22;43.17;;;21.40;99.90;;;;;;5124232;27;20538;-80
2022/08/26 02:18:44;;;;;;;48.97;44.00;;;21.40;99.90;;;;;;5104733;28;20146;-80
2022/08/26 02:21:11;;;;;;;51.35;45.95;;;21.30;99.90;;;;;;5128485;27;20475;-80
2022/08/26 02:23:37;;;;;;;50.08;45.22;;;21.30;99.90;;;;;;5124333;27;20416;-80
2022/08/26 02:26:13;;;;;;;54.50;48.65;;;21.20;99.90;;;;;;5106618;28;20039;-80
2022/08/26 02:28:54;;;;;;;50.17;45.08;;;21.20;99.90;;;;;;5110969;28;20046;-80
2022/08/26 02:31:20;;;;;;;53.05;47.65;;;21.20;99.90;;;;;;5110378;27;20047;-80
2022/08/26 02:33:46;;;;;;;53.53;48.00;;;21.20;99.90;;;;;;5129145;28;20039;-80
2022/08/26 02:36:16;;;;;;;55.22;49.40;;;21.10;99.90;;;;;;5128437;27;20461;-80
2022/08/26 02:38:42;;;;;;;57.25;50.97;;;21.10;99.90;;;;;;5106539;28;20139;-80
2022/08/26 02:41:08;;;;;;;53.45;47.90;;;21.10;99.90;;;;;;5109029;28;20175;-79
2022/08/26 02:43:35;;;;;;;54.77;49.00;;;21.10;99.90;;;;;;5112360;28;20043;-80
2022/08/26 02:46:01;;;;;;;54.25;48.38;;;21.10;99.90;;;;;;5126864;27;20829;-80
2022/08/26 02:48:26;;;;;;;58.25;51.85;;;21.00;99.90;;;;;;5108608;28;20031;-80
2022/08/26 02:50:52;;;;;;;57.65;50.47;;;21.00;99.90;;;;;;5129682;27;20075;-80
2022/08/26 02:53:19;;;;;;;55.15;49.30;;;21.00;99.90;;;;;;5109980;28;20380;-80
2022/08/26 02:55:48;;;;;;;54.42;48.00;;;21.00;99.90;;;;;;5109061;28;20055;-79
2022/08/26 02:58:14;;;;;;;54.45;48.08;;;21.00;99.90;;;;;;5111509;27;20061;-80
2022/08/26 03:00:40;;;;;;;54.00;46.78;;;21.00;99.90;;;;;;5126512;28;20039;-79
2022/08/26 03:03:06;;;;;;;53.10;47.47;;;21.00;99.90;;;;;;5102019;28;20127;-80
2022/08/26 03:05:32;;;;;;;52.92;46.90;;;21.00;99.90;;;;;;5131615;28;20031;-80
2022/08/26 03:07:58;;;;;;;53.08;45.22;;;21.00;99.90;;;;;;5124774;28;20050;-80
2022/08/26 03:10:24;;;;;;;52.03;45.72;;;21.00;99.90;;;;;;5125633;28;20053;-80
2022/08/26 03:12:50;;;;;;;50.65;44.88;;;21.10;99.90;;;;;;5127879;28;20118;-80
2022/08/26 03:15:17;;;;;;;49.50;44.13;;;21.10;99.90;;;;;;5122663;27;20473;-80
2022/08/26 03:17:43;;;;;;;;;;;21.10;99.90;;;;;;5110974;28;20485;-80
2022/08/26 03:20:09;;;;;;;50.03;42.40;;;21.00;99.90;;;;;;5140027;27;20300;-80
2022/08/26 03:22:37;;;;;;;49.87;44.50;;;21.00;99.90;;;;;;5127931;28;20719;-79
2022/08/26 03:25:05;;;;;;;46.83;41.55;;;21.00;99.90;;;;;;5102866;28;20374;-80
2022/08/26 03:27:31;;;;;;;50.05;43.13;;;21.00;99.90;;;;;;5125593;28;20051;-80
2022/08/26 03:32:41;;;;;;;46.75;41.70;;;21.10;99.90;;;;;;5108849;28;20046;-79
2022/08/26 03:35:08;;;;;;;47.80;42.65;;;21.10;99.90;;;;;;5110024;28;20054;-79
2022/08/26 03:37:33;;;;;;;47.00;42.00;;;21.10;99.90;;;;;;5106685;28;20091;-80
2022/08/26 03:39:59;;;;;;;50.35;42.13;;;21.00;99.90;;;;;;5123018;28;20133;-80
2022/08/26 03:42:25;;;;;;;46.67;41.50;;;21.00;99.90;;;;;;5129408;28;20405;-80
2022/08/26 03:44:51;;;;;;;47.58;42.40;;;21.00;99.90;;;;;;5109928;27;20276;-79
2022/08/26 03:47:17;;;;;;;48.42;42.55;;;21.00;99.90;;;;;;5131428;27;20031;-79
2022/08/26 03:49:43;;;;;;;49.42;42.45;;;21.00;99.90;;;;;;5114331;27;20591;-80
2022/08/26 03:52:09;;;;;;;45.92;41.03;;;21.00;99.90;;;;;;5125696;27;20178;-80
2022/08/26 03:54:35;;;;;;;45.90;40.88;;;21.00;99.90;;;;;;5126430;27;20393;-79
2022/08/26 03:57:00;;;;;;;50.63;43.17;;;21.00;99.90;;;;;;5109892;27;20043;-80
2022/08/26 03:59:26;;;;;;;48.13;42.17;;;21.10;99.90;;;;;;5118491;27;20110;-79
2022/08/26 04:01:52;;;;;;;45.05;40.15;;;21.00;99.90;;;;;;5128428;27;20445;-79
2022/08/26 04:04:18;;;;;;;46.67;40.67;;;21.00;99.90;;;;;;5128357;27;20402;-80
2022/08/26 04:06:43;;;;;;;52.45;43.22;;;21.00;99.90;;;;;;5127855;27;20061;-79
2022/08/26 04:09:13;;;;;;;46.45;41.45;;;21.00;99.90;;;;;;5121548;27;20027;-80
2022/08/26 04:11:42;;;;;;;50.15;42.30;;;21.00;99.90;;;;;;5107513;27;20816;-80
2022/08/26 04:14:14;;;;;;;47.72;41.85;;;21.00;99.90;;;;;;5110541;27;20046;-80
2022/08/26 04:16:41;;;;;;;50.40;42.13;;;21.00;99.90;;;;;;5111778;27;20054;-79
2022/08/26 04:19:08;;;;;;;;;;;21.00;99.90;;;;;;5128915;27;20704;-79
2022/08/26 04:21:34;;;;;;;47.53;41.40;;;21.00;99.90;;;;;;5113503;27;19964;-80
2022/08/26 04:24:00;;;;;;;46.88;41.67;;;20.90;99.90;;;;;;5129246;27;20064;-79
2022/08/26 04:26:25;;;;;;;48.55;42.45;;;21.00;99.90;;;;;;5129259;27;20043;-80
2022/08/26 04:28:53;;;;;;;45.05;40.28;;;20.90;99.90;;;;;;5124600;27;20180;-80
2022/08/26 04:31:19;;;;;;;48.80;40.35;;;21.00;99.90;;;;;;5125429;27;20102;-80
2022/08/26 04:33:47;;;;;;;48.15;40.63;;;21.00;99.90;;;;;;5109358;27;20047;-80
2022/08/26 04:36:13;;;;;;;45.55;40.10;;;21.00;99.90;;;;;;5129724;27;20047;-79
2022/08/26 04:38:39;;;;;;;44.85;38.83;;;21.00;99.90;;;;;;5129395;27;20090;-79
2022/08/26 04:41:07;;;;;;;44.80;40.05;;;21.00;99.90;;;;;;5103651;27;20072;-80
2022/08/26 04:43:33;;;;;;;46.63;38.42;;;21.00;99.90;;;;;;5112311;27;20082;-79
2022/08/26 04:46:01;;;;;;;49.03;40.00;;;21.00;99.90;;;;;;5109362;27;20082;-80
2022/08/26 04:48:31;;;;;;;46.53;38.45;;;21.00;99.90;;;;;;5128127;27;20035;-82
2022/08/26 04:50:58;;;;;;;46.25;39.65;;;21.00;99.90;;;;;;5122168;27;20518;-81
2022/08/26 04:53:25;;;;;;;44.05;39.33;;;21.00;99.90;;;;;;5135140;27;20054;-81
2022/08/26 04:55:51;;;;;;;51.22;39.75;;;21.00;99.90;;;;;;5109797;27;20070;-80
2022/08/26 04:58:19;;;;;;;43.72;38.10;;;21.00;99.90;;;;;;5108339;27;20085;-81
2022/08/26 05:00:47;;;;;;;45.30;40.55;;;21.00;99.90;;;;;;5130202;27;20381;-81
2022/08/26 05:03:13;;;;;;;50.35;40.38;;;21.00;99.90;;;;;;5108799;27;20054;-81
2022/08/26 05:05:43;;;;;;;47.15;40.00;;;21.00;99.90;;;;;;5130821;27;20051;-81
2022/08/26 05:08:11;;;;;;;46.58;40.50;;;21.00;99.90;;;;;;5128637;27;20077;-79
2022/08/26 05:10:43;;;;;;;44.20;38.28;;;21.00;99.90;;;;;;5105114;27;20050;-82
2022/08/26 05:13:10;;;;;;;44.33;36.53;;;21.00;99.90;;;;;;5118815;27;20047;-81
2022/08/26 05:15:35;;;;;;;48.85;38.08;;;21.00;99.90;;;;;;5099261;27;20043;-81
2022/08/26 05:18:05;;;;;;;46.70;36.60;;;21.00;99.90;;;;;;5129667;27;20041;-81
2022/08/26 05:20:32;;;;;;;49.88;36.67;;;21.10;99.90;;;;;;5111011;27;20115;-82
2022/08/26 05:23:00;;;;;;;46.17;35.47;;;21.10;99.90;;;;;;5129452;27;20422;-81
2022/08/26 05:25:27;;;;;;;42.30;34.97;;;21.10;99.90;;;;;;5126673;27;20285;-80
2022/08/26 05:27:53;;;;;;;42.27;34.17;;;21.10;99.90;;;;;;5130270;27;20043;-82
2022/08/26 05:30:19;;;;;;;41.42;34.42;;;21.20;99.90;;;;;;5098402;27;20085;-78
2022/08/26 05:32:47;;;;;;;42.97;35.03;;;21.20;99.90;;;;;;5109791;27;20046;-79
2022/08/26 05:35:13;;;;;;;43.40;34.78;;;21.20;99.90;;;;;;5109801;27;20224;-79
2022/08/26 05:37:40;;;;;;;38.90;33.78;;;21.20;99.90;;;;;;5128462;27;20043;-78
2022/08/26 05:40:06;;;;;;;41.38;34.05;;;21.20;99.90;;;;;;5109706;27;20075;-79
2022/08/26 05:42:32;;;;;;;43.47;35.10;;;21.20;99.90;;;;;;5109174;27;20481;-81
2022/08/26 05:44:58;;;;;;;41.90;33.35;;;21.20;99.90;;;;;;5110255;27;20304;-81
2022/08/26 05:47:25;;;;;;;41.03;32.58;;;21.20;99.90;;;;;;5130222;27;20405;-81
2022/08/26 05:49:50;;;;;;;46.03;32.90;;;21.20;99.90;;;;;;5128289;27;20043;-80
2022/08/26 05:52:16;;;;;;;39.40;31.42;;;21.20;99.90;;;;;;5109527;27;20066;-80
2022/08/26 05:54:42;;;;;;;45.58;32.30;;;21.20;99.90;;;;;;5104977;27;20409;-81
2022/08/26 05:57:07;;;;;;;38.28;31.23;;;21.20;99.90;;;;;;5106126;27;20114;-84
2022/08/26 05:59:41;;;;;;;35.63;29.13;;;21.20;99.90;;;;;;5125027;27;20046;-81
2022/08/26 06:02:25;;;;;;;34.00;29.73;;;21.30;99.90;;;;;;5132067;27;20066;-81
2022/08/26 06:04:59;;;;;;;35.17;28.40;;;21.30;99.90;;;;;;5131089;27;20039;-81
2022/08/26 06:11:32;;;;;;;38.72;27.05;;;21.30;99.90;;;;;;5119929;27;20051;-80
2022/08/26 06:14:31;;;;;;;33.17;26.38;;;21.50;99.90;;;;;;5189001;22;20300;-82
2022/08/26 06:17:09;;;;;;;31.67;25.55;;;21.50;99.90;;;;;;5056981;28;20488;-83
2022/08/26 06:19:35;;;;;;;31.90;25.80;;;21.40;99.90;;;;;;5049419;28;20120;-83
2022/08/26 06:26:08;;;;;;;33.20;24.98;;;21.50;99.90;;;;;;5045061;28;20049;-83
2022/08/26 06:28:35;;;;;;;30.75;26.02;;;21.50;99.90;;;;;;4981221;28;20526;-83
2022/08/26 06:31:12;;;;;;;33.47;25.73;;;21.50;99.90;;;;;;4989616;28;20046;-84
2022/08/26 06:36:44;;;;;;;31.58;24.90;;;21.50;99.90;;;;;;5072885;22;20044;-82
2022/08/26 06:49:26;;;;;;;27.13;22.80;;;21.50;99.90;;;;;;5039484;23;20052;-84
2022/08/26 06:51:59;;;;;;;34.08;22.77;;;21.50;99.90;;;;;;5084317;28;20048;-83
2022/08/26 06:55:03;;;;;;;28.15;22.08;;;21.60;99.90;;;;;;5086356;28;20040;-82
2022/08/26 06:57:39;;;;;;;30.83;22.48;;;21.70;99.90;;;;;;5088592;28;20051;-83
2022/08/26 07:00:24;;;;;;;29.80;22.45;;;21.70;99.90;;;;;;5081834;28;20044;-82
2022/08/26 07:03:26;;;;;;;31.65;23.90;;;21.80;99.90;;;;;;5084655;28;20051;-80
2022/08/26 07:08:32;;;;;;;28.73;22.63;;;21.90;99.90;;;;;;5069968;22;20670;-84
2022/08/26 07:11:06;;;;;;;26.05;22.52;;;21.90;99.90;;;;;;5075250;28;20479;-85
2022/08/26 07:13:39;;;;;;;25.75;21.42;;;21.90;99.90;;;;;;5086563;28;20036;-83
2022/08/26 07:18:31;;;;;;;27.83;20.20;;;22.00;99.90;;;;;;5086026;22;20510;-84
2022/08/26 07:21:21;;;;;;;32.63;21.33;;;22.10;99.90;;;;;;5086784;28;20063;-84
2022/08/26 07:23:47;;;;;;;24.40;20.20;;;22.10;99.90;;;;;;5090430;22;20450;-82
2022/08/26 07:26:20;;;;;;;25.08;18.98;;;22.20;99.90;;;;;;5054749;28;20059;-83
2022/08/26 07:28:49;;;;;;;25.98;19.48;;;22.20;99.90;;;;;;5055077;28;20090;-83
2022/08/26 07:31:16;;;;;;;24.48;19.15;;;22.20;99.90;;;;;;5073670;28;20123;-84
2022/08/26 07:33:42;;;;;;;25.98;16.85;;;22.20;99.90;;;;;;5072960;28;20036;-84
2022/08/26 07:36:10;;;;;;;22.40;17.65;;;22.20;99.90;;;;;;5068135;28;20055;-85
2022/08/26 07:38:37;;;;;;;25.35;18.38;;;22.30;99.90;;;;;;5067744;28;20131;-82
2022/08/26 07:41:07;;;;;;;19.55;16.00;;;22.30;99.90;;;;;;5072798;28;20040;-84
2022/08/26 07:43:34;;;;;;;24.38;16.75;;;22.40;99.90;;;;;;5068070;28;20040;-84
2022/08/26 07:46:03;;;;;;;20.63;16.33;;;22.40;99.90;;;;;;5065441;28;20087;-85
2022/08/26 07:48:46;;;;;;;18.42;15.25;;;22.40;99.90;;;;;;5052767;28;20120;-85
2022/08/26 07:51:24;;;;;;;20.65;14.80;;;22.50;99.90;;;;;;5066214;28;20117;-81
2022/08/26 07:53:55;;;;;;;22.70;14.88;;;22.50;99.90;;;;;;5071389;28;20048;-80
2022/08/26 07:56:23;;;;;;;21.80;13.68;;;22.50;99.90;;;;;;5068418;28;20407;-81
2022/08/26 07:58:50;;;;;;;24.33;14.85;;;22.60;99.90;;;;;;5070018;28;20040;-81
2022/08/26 08:01:15;;;;;;;;;;;22.60;99.90;;;;;;5048379;28;20052;-81
2022/08/26 08:03:41;;;;;;;22.07;13.50;;;22.60;99.90;;;;;;5060067;28;19973;-82
2022/08/26 08:06:07;;;;;;;23.15;13.70;;;22.60;99.90;;;;;;5063567;28;20049;-84
2022/08/26 08:08:36;;;;;;;17.20;12.75;;;22.60;99.90;;;;;;5050363;28;20048;-85
2022/08/26 08:11:02;;;;;;;20.92;12.98;;;22.60;99.90;;;;;;5070508;28;20044;-83
2022/08/26 08:13:28;;;;;;;21.77;12.73;;;22.70;99.90;;;;;;5049975;28;20466;-84
2022/08/26 08:15:54;;;;;;;21.10;13.30;;;22.70;99.90;;;;;;5071609;28;20037;-85
2022/08/26 08:18:21;;;;;;;16.98;12.50;;;22.70;99.90;;;;;;5070118;28;20032;-85
2022/08/26 08:20:47;;;;;;;16.90;11.43;;;22.80;99.90;;;;;;5070397;28;20471;-84
2022/08/26 08:23:15;;;;;;;18.30;12.05;;;22.80;99.90;;;;;;5049217;28;20138;-81
2022/08/26 08:25:42;;;;;;;17.58;11.40;;;22.80;99.90;;;;;;5048290;28;20049;-85
2022/08/26 08:28:08;;;;;;;16.58;11.30;;;22.80;99.90;;;;;;5060819;28;20063;-84
2022/08/26 08:30:38;;;;;;;17.52;11.05;;;22.80;99.90;;;;;;5052692;28;20056;-84
2022/08/26 08:33:04;;;;;;;18.42;11.40;;;22.90;99.90;;;;;;5049247;28;20045;-84
2022/08/26 08:35:30;;;;;;;19.45;12.13;;;22.80;99.90;;;;;;5066656;28;20049;-82
2022/08/26 08:37:56;;;;;;;18.42;11.70;;;22.80;99.90;;;;;;5068411;28;20047;-82
2022/08/26 08:40:25;;;;;;;22.90;11.38;;;22.90;99.90;;;;;;5071206;28;20057;-83
2022/08/26 08:43:14;;;;;;;23.55;11.55;;;23.00;99.90;;;;;;5069764;28;20444;-83
2022/08/26 08:45:51;;;;;;;19.73;10.77;;;23.10;99.90;;;;;;5050694;28;20400;-78
2022/08/26 08:48:28;;;;;;;24.50;11.50;;;23.20;99.90;;;;;;5049898;28;20045;-82
2022/08/26 08:50:58;;;;;;;20.85;10.05;;;23.20;99.90;;;;;;5068138;28;20495;-83
2022/08/26 08:53:33;;;;;;;19.10;10.57;;;23.30;99.90;;;;;;5071122;28;20076;-86
2022/08/26 08:56:26;;;;;;;14.80;10.00;;;23.40;99.90;;;;;;5069299;28;20127;-80
2022/08/26 08:59:19;;;;;;;17.88;9.27;;;23.30;99.90;;;;;;5064089;28;20041;-85
2022/08/26 09:02:15;;;;;;;17.98;10.45;;;23.40;99.90;;;;;;5049644;28;20577;-85
2022/08/26 09:04:44;;;;;;;16.15;9.77;;;23.40;99.90;;;;;;5051266;28;20120;-83
2022/08/26 09:07:37;;;;;;;18.20;9.25;;;23.40;99.90;;;;;;5050698;28;20523;-85
2022/08/26 09:10:29;;;;;;;15.38;8.88;;;23.50;99.90;;;;;;5060286;28;20120;-82
2022/08/26 09:12:55;;;;;;;16.25;9.18;;;23.50;99.90;;;;;;5069033;28;20101;-84
2022/08/26 09:16:01;;;;;;;16.70;8.30;;;23.50;99.90;;;;;;5070075;28;20044;-82
2022/08/26 09:18:38;;;;;;;16.17;8.25;;;23.50;99.90;;;;;;5064321;28;20037;-80
2022/08/26 09:21:07;;;;;;;16.52;8.38;;;23.50;99.90;;;;;;5062347;28;20178;-82
2022/08/26 09:23:34;;;;;;;18.98;9.27;;;23.50;99.90;;;;;;5052333;28;20124;-81
2022/08/26 09:26:13;;;;;;;17.55;8.88;;;23.50;99.90;;;;;;5069003;28;20070;-80
2022/08/26 09:28:46;;;;;;;17.08;8.63;;;23.40;99.90;;;;;;5069789;28;20041;-80
2022/08/26 09:31:18;;;;;;;16.42;8.85;;;23.40;99.90;;;;;;5068636;28;20052;-82
2022/08/26 09:33:43;;;;;;;16.25;8.82;;;23.40;99.90;;;;;;5069216;28;20066;-77
2022/08/26 09:36:34;;;;;;;11.60;8.52;;;23.30;99.90;;;;;;5047850;28;20045;-80
2022/08/26 09:39:01;;;;;;;14.75;8.10;;;23.40;99.90;;;;;;5070024;28;20086;-80
2022/08/26 09:41:34;;;;;;;15.63;9.35;;;23.40;99.90;;;;;;5066749;28;20044;-79
2022/08/26 09:44:19;;;;;;;13.73;8.30;;;23.40;99.90;;;;;;5051634;28;20048;-78
2022/08/26 09:46:51;;;;;;;13.05;7.47;;;23.50;99.90;;;;;;5048091;28;20044;-80
2022/08/26 09:49:48;;;;;;;12.93;6.93;;;23.60;99.90;;;;;;5047895;28;20041;-81
2022/08/26 09:52:19;;;;;;;14.55;7.80;;;23.60;99.90;;;;;;5045983;28;20117;-79
2022/08/26 09:55:20;;;;;;;14.40;7.10;;;23.60;99.90;;;;;;5050886;28;20491;-76
2022/08/26 09:57:53;;;;;;;14.07;7.30;;;23.60;99.90;;;;;;5048227;28;20056;-78
2022/08/26 10:00:28;;;;;;;14.02;7.05;;;23.60;99.90;;;;;;5048051;28;20098;-79
2022/08/26 10:02:54;;;;;;;11.82;6.65;;;23.70;99.90;;;;;;5054730;28;20118;-79
2022/08/26 10:05:50;;;;;;;15.50;6.97;;;23.70;99.90;;;;;;5048181;28;20048;-78
2022/08/26 10:08:47;;;;;;;13.15;7.15;;;23.70;99.90;;;;;;5067492;28;20132;-76
2022/08/26 10:11:40;;;;;;;15.07;6.57;;;23.60;99.90;;;;;;5060662;28;20045;-77
2022/08/26 10:14:29;;;;;;;15.95;7.40;;;23.60;99.90;;;;;;5049669;28;20059;-76
2022/08/26 10:17:07;;;;;;;11.27;6.85;;;23.50;99.90;;;;;;5048016;28;20050;-79
2022/08/26 10:19:42;;;;;;;13.85;5.80;;;23.50;99.90;;;;;;5040937;28;20106;-79
2022/08/26 10:22:19;;;;;;;10.95;4.60;;;23.50;99.90;;;;;;5049614;28;20127;-79
2022/08/26 10:24:51;;;;;;;9.57;4.15;;;23.40;99.90;;;;;;5046378;28;20049;-82
2022/08/26 10:27:48;;;;;;;13.82;4.50;;;23.30;99.90;;;;;;5068986;28;20052;-82
2022/08/26 10:30:17;;;;;;;13.88;4.38;;;23.30;99.90;;;;;;5041889;28;20060;-80
2022/08/26 10:32:50;;;;;;;13.90;5.18;;;23.20;99.90;;;;;;5066712;28;20440;-78
2022/08/26 10:35:18;;;;;;;10.40;4.40;;;23.20;99.90;;;;;;5066725;28;20067;-79
2022/08/26 10:37:52;;;;;;;10.98;4.65;;;23.10;99.90;;;;;;5051088;28;20102;-79
2022/08/26 10:40:25;;;;;;;12.98;4.28;;;23.20;99.90;;;;;;5049854;28;20048;-78
2022/08/26 10:43:14;;;;;;;12.93;4.65;;;23.20;99.90;;;;;;5071650;28;20104;-77
2022/08/26 10:45:47;;;;;;;9.68;4.28;;;23.20;99.90;;;;;;5083498;28;20036;-81
2022/08/26 10:48:35;;;;;;;12.57;4.35;;;23.10;99.90;;;;;;5074462;28;20065;-80
2022/08/26 10:51:02;;;;;;;15.10;4.82;;;23.20;99.90;;;;;;5048584;28;20048;-80
2022/08/26 10:53:48;;;;;;;14.45;4.40;;;23.10;99.90;;;;;;5051008;28;20045;-80
2022/08/26 10:56:23;;;;;;;11.82;3.90;;;23.00;99.90;;;;;;5066371;28;20040;-79
2022/08/26 10:58:55;;;;;;;13.02;4.15;;;23.00;99.90;;;;;;5042764;28;20040;-80
2022/08/26 11:01:44;;;;;;;9.32;3.58;;;22.90;99.90;;;;;;5049292;28;20514;-84
2022/08/26 11:04:29;;;;;;;10.27;3.78;;;22.90;99.90;;;;;;5070406;28;20392;-80
2022/08/26 11:07:32;;;;;;;11.40;3.58;;;22.90;99.90;;;;;;5065559;28;20083;-80
2022/08/26 11:10:10;;;;;;;10.32;3.42;;;22.90;99.90;;;;;;5057442;28;20045;-83
2022/08/26 11:12:46;;;;;;;11.63;4.57;;;22.90;99.90;;;;;;5044615;28;20048;-83
2022/08/26 11:15:16;;;;;;;11.70;4.28;;;22.80;99.90;;;;;;5070666;28;20048;-79
2022/08/26 11:17:45;;;;;;;13.82;4.82;;;22.80;99.90;;;;;;5066636;28;20319;-78
2022/08/26 11:20:37;;;;;;;10.10;3.80;;;22.90;99.90;;;;;;5044291;28;20055;-78
2022/08/26 11:23:11;;;;;;;11.43;4.35;;;23.00;99.90;;;;;;5072036;28;20076;-76
2022/08/26 11:25:55;;;;;;;10.52;4.30;;;23.00;99.90;;;;;;5053970;28;20116;-84
2022/08/26 11:28:34;;;;;;;11.05;3.92;;;23.10;99.90;;;;;;5067492;28;20059;-78
2022/08/26 11:31:01;;;;;;;11.05;3.70;;;23.10;99.90;;;;;;5050537;28;20574;-80
2022/08/26 11:33:48;;;;;;;10.63;3.50;;;23.10;99.90;;;;;;5044698;28;20042;-76
2022/08/26 11:36:33;;;;;;;12.07;3.72;;;23.20;99.90;;;;;;5066407;28;20048;-76
2022/08/26 11:39:18;;;;;;;9.65;3.50;;;23.20;99.90;;;;;;5046012;28;20049;-76
2022/08/26 11:41:46;;;;;;;10.82;3.75;;;23.10;99.90;;;;;;5049190;28;20048;-76
2022/08/26 11:44:18;;;;;;;17.25;4.20;;;23.00;99.90;;;;;;5064586;28;20072;-80
2022/08/26 11:46:56;;;;;;;12.98;4.13;;;23.00;99.90;;;;;;5047891;28;20128;-79
2022/08/26 11:49:23;;;;;;;9.23;3.38;;;23.00;99.90;;;;;;5070237;28;20036;-77
2022/08/26 11:51:49;;;;;;;10.00;3.67;;;23.00;99.90;;;;;;5050741;28;20045;-76
2022/08/26 11:54:18;;;;;;;12.15;3.42;;;23.00;99.90;;;;;;5070640;28;20097;-78
2022/08/26 11:56:46;;;;;;;8.45;3.00;;;22.90;99.90;;;;;;5047136;28;20048;-78
2022/08/26 11:59:17;;;;;;;11.68;3.38;;;22.90;99.90;;;;;;5050001;28;20048;-80
2022/08/26 12:01:47;;;;;;;9.18;3.55;;;22.80;99.90;;;;;;5045435;28;20051;-81
2022/08/26 12:04:36;;;;;;;12.20;3.92;;;22.80;99.90;;;;;;5065594;28;20044;-79
2022/08/26 12:07:03;;;;;;;11.32;3.53;;;22.90;99.90;;;;;;5060319;28;20075;-79
2022/08/26 12:09:33;;;;;;;;;;;22.80;99.90;;;;;;5049779;28;20599;-78
2022/08/26 12:12:17;;;;;;;9.05;3.22;;;22.80;99.90;;;;;;5064987;28;19974;-78
2022/08/26 12:14:43;;;;;;;12.73;3.80;;;22.80;99.90;;;;;;5044193;28;20062;-80
2022/08/26 12:17:16;;;;;;;9.53;3.50;;;22.70;99.90;;;;;;5050299;28;20083;-80
2022/08/26 12:19:42;;;;;;;11.40;3.65;;;22.70;99.90;;;;;;5050763;28;20036;-75
2022/08/26 12:22:22;;;;;;;11.77;3.47;;;22.70;99.90;;;;;;5063826;28;20048;-73
2022/08/26 12:24:54;;;;;;;12.00;3.28;;;22.70;99.90;;;;;;5065188;28;20060;-76
2022/08/26 12:27:21;;;;;;;13.23;3.70;;;22.70;99.90;;;;;;5037538;28;20052;-75
2022/08/26 12:30:03;;;;;;;12.48;3.70;;;22.70;99.90;;;;;;5068984;28;20525;-74
2022/08/26 12:32:30;;;;;;;13.30;3.42;;;22.80;99.90;;;;;;5045504;28;20043;-73
2022/08/26 12:34:56;;;;;;;9.57;3.55;;;22.90;99.90;;;;;;5049014;28;20688;-74
2022/08/26 12:37:23;;;;;;;8.63;3.00;;;23.00;99.90;;;;;;5068532;28;20044;-74
2022/08/26 12:39:49;;;;;;;14.55;3.40;;;23.10;99.90;;;;;;5067461;28;20068;-74
2022/08/26 12:42:14;;;;;;;11.70;3.85;;;23.10;99.90;;;;;;5068655;28;20122;-75
2022/08/26 12:45:02;;;;;;;10.35;3.40;;;23.10;99.90;;;;;;5048052;28;20077;-74
2022/08/26 12:47:33;;;;;;;9.60;3.20;;;23.10;99.90;;;;;;5049449;28;20056;-74
2022/08/26 12:50:19;;;;;;;10.40;3.28;;;23.10;99.90;;;;;;5050340;28;20065;-74
2022/08/26 12:53:03;;;;;;;14.57;3.40;;;23.20;99.90;;;;;;5066941;28;20037;-74
2022/08/26 12:55:35;;;;;;;8.20;2.97;;;23.20;99.90;;;;;;5044317;28;20040;-73
2022/08/26 12:58:24;;;;;;;7.80;3.10;;;23.20;99.90;;;;;;5047712;28;20040;-76
2022/08/26 13:01:03;;;;;;;8.73;3.00;;;23.20;99.90;;;;;;5045660;28;20491;-78
2022/08/26 13:03:42;;;;;;;8.00;3.17;;;23.20;99.90;;;;;;5064402;28;20040;-78
2022/08/26 13:06:22;;;;;;;9.88;3.38;;;23.10;99.90;;;;;;5042515;28;20415;-78
2022/08/26 13:08:48;;;;;;;10.38;3.30;;;23.00;99.90;;;;;;5047136;28;20131;-83
2022/08/26 13:11:20;;;;;;;8.85;3.33;;;23.00;99.90;;;;;;5046619;28;20197;-79
2022/08/26 13:13:50;;;;;;;7.63;3.00;;;22.90;99.90;;;;;;5047034;28;20060;-79
2022/08/26 13:16:18;;;;;;;10.90;3.17;;;22.80;99.90;;;;;;5069647;28;20049;-78
2022/08/26 13:18:45;;;;;;;11.02;3.13;;;22.80;99.90;;;;;;5048091;28;20055;-75
2022/08/26 13:21:21;;;;;;;10.98;3.80;;;22.70;99.90;;;;;;5062257;28;20068;-79
2022/08/26 13:23:52;;;;;;;9.68;3.45;;;22.60;99.90;;;;;;5065272;28;20425;-82
2022/08/26 13:29:19;;;;;;;9.07;3.92;;;22.50;99.90;;;;;;5100906;22;20063;-81